Time;durP1;ratioP1;P1;durP2;ratioP2;P2;SDS_P1;SDS_P2;PMS_P1;PMS_P2;Temp;Humidity;BMP_temperature;BMP_pressure;BME280_temperature;BME280_humidity;BME280_pressure;Samples;Min_cycle;Max_cycle;Signal;HPM_P1;HPM_P2
2021/12/28 00:01:13;;;;;;;105.57;38.85;;;-4.90;91.40;;;;;;5035516;28;20028;-77
2021/12/28 00:03:42;;;;;;;113.80;41.00;;;-4.90;91.50;;;;;;5017933;28;20037;-77
2021/12/28 00:06:08;;;;;;;98.82;39.92;;;-4.90;91.50;;;;;;5001370;28;20022;-77
2021/12/28 00:08:34;;;;;;;104.57;41.22;;;-4.90;91.40;;;;;;4997115;28;20050;-77
2021/12/28 00:11:03;;;;;;;115.78;39.08;;;-4.90;91.40;;;;;;5015388;28;20028;-77
2021/12/28 00:13:34;;;;;;;104.85;40.35;;;-4.90;91.40;;;;;;4998138;28;20483;-78
2021/12/28 00:16:24;;;;;;;108.32;39.92;;;-5.00;91.50;;;;;;4998757;28;20037;-77
2021/12/28 00:18:50;;;;;;;110.40;40.15;;;-5.00;91.50;;;;;;4999710;28;20041;-77
2021/12/28 00:21:20;;;;;;;110.45;39.67;;;-5.00;91.50;;;;;;5015149;28;20092;-78
2021/12/28 00:23:46;;;;;;;97.25;38.83;;;-5.10;91.60;;;;;;5015103;28;20061;-78
2021/12/28 00:26:22;;;;;;;99.60;38.92;;;-5.10;91.70;;;;;;5015139;28;20105;-78
2021/12/28 00:28:49;;;;;;;103.80;40.08;;;-5.10;91.80;;;;;;5015490;28;20140;-78
2021/12/28 00:31:17;;;;;;;102.25;39.50;;;-5.10;91.90;;;;;;5015226;28;20026;-78
2021/12/28 00:34:03;;;;;;;117.10;40.95;;;-5.20;92.00;;;;;;5014956;28;20058;-78
2021/12/28 00:36:31;;;;;;;118.10;41.83;;;-5.20;92.10;;;;;;5014869;28;20080;-78
2021/12/28 00:39:00;;;;;;;108.32;40.05;;;-5.20;92.10;;;;;;5014989;28;20030;-78
2021/12/28 00:41:27;;;;;;;104.03;38.75;;;-5.30;92.20;;;;;;4997222;28;20037;-77
2021/12/28 00:43:54;;;;;;;110.00;42.28;;;-5.30;92.30;;;;;;5014696;28;20026;-77
2021/12/28 00:46:22;;;;;;;104.47;41.33;;;-5.30;92.40;;;;;;5014551;28;20022;-78
2021/12/28 00:48:48;;;;;;;107.75;40.20;;;-5.30;92.50;;;;;;5014925;28;20494;-78
2021/12/28 00:51:16;;;;;;;110.80;40.03;;;-5.30;92.50;;;;;;5014668;28;20026;-78
2021/12/28 00:53:44;;;;;;;103.88;42.05;;;-5.40;92.60;;;;;;5015605;28;20036;-78
2021/12/28 00:56:11;;;;;;;120.32;44.15;;;-5.40;92.60;;;;;;5015408;28;20030;-78
2021/12/28 00:58:38;;;;;;;107.07;40.00;;;-5.40;92.70;;;;;;4997297;28;20108;-78
2021/12/28 01:01:19;;;;;;;114.93;43.08;;;-5.40;92.80;;;;;;5014445;28;20029;-77
2021/12/28 01:03:47;;;;;;;108.78;40.03;;;-5.40;92.80;;;;;;4997017;28;20033;-77
2021/12/28 01:06:14;;;;;;;106.60;41.00;;;-5.40;92.80;;;;;;4997032;28;20034;-77
2021/12/28 01:08:41;;;;;;;108.30;42.45;;;-5.40;92.90;;;;;;5018896;28;20073;-77
2021/12/28 01:11:09;;;;;;;122.03;44.53;;;-5.40;92.90;;;;;;5034188;28;20017;-78
2021/12/28 01:13:39;;;;;;;106.05;43.65;;;-5.40;92.90;;;;;;5033961;28;20060;-77
2021/12/28 01:16:08;;;;;;;125.35;45.05;;;-5.40;92.90;;;;;;5000126;28;20115;-77
2021/12/28 01:18:35;;;;;;;114.78;42.25;;;-5.40;92.90;;;;;;5034542;28;20096;-77
2021/12/28 01:21:02;;;;;;;118.18;44.53;;;-5.40;93.00;;;;;;5021656;28;20526;-78
2021/12/28 01:23:30;;;;;;;108.95;44.35;;;-5.40;93.00;;;;;;5014100;28;20026;-78
2021/12/28 01:25:57;;;;;;;118.57;44.50;;;-5.40;93.10;;;;;;5014139;28;20503;-77
2021/12/28 01:28:25;;;;;;;128.27;46.30;;;-5.40;93.10;;;;;;5014040;28;20030;-78
2021/12/28 01:30:52;;;;;;;114.00;40.90;;;-5.40;93.10;;;;;;5014037;28;20112;-78
2021/12/28 01:33:19;;;;;;;116.38;44.15;;;-5.40;93.20;;;;;;4980310;28;20034;-78
2021/12/28 01:35:50;;;;;;;124.03;43.00;;;-5.50;93.20;;;;;;5014272;28;20107;-77
2021/12/28 01:38:21;;;;;;;112.32;42.00;;;-5.40;93.70;;;;;;4996806;28;20042;-76
2021/12/28 01:40:46;;;;;;;121.10;45.65;;;-5.40;93.50;;;;;;4997233;28;20042;-77
2021/12/28 01:43:15;;;;;;;111.68;45.33;;;-5.40;93.50;;;;;;5013850;28;20038;-78
2021/12/28 01:45:55;;;;;;;115.78;41.88;;;-5.40;93.50;;;;;;5013979;28;20025;-77
2021/12/28 01:48:41;;;;;;;106.18;44.15;;;-5.40;93.60;;;;;;4996267;28;20029;-78
2021/12/28 01:51:14;;;;;;;111.53;44.45;;;-5.30;93.60;;;;;;4980685;28;20033;-77
2021/12/28 01:53:41;;;;;;;119.53;44.85;;;-5.30;93.50;;;;;;4996795;28;20514;-77
2021/12/28 01:56:11;;;;;;;137.55;48.58;;;-5.30;93.40;;;;;;4980048;28;20037;-79
2021/12/28 01:58:39;;;;;;;121.80;44.55;;;-5.30;93.40;;;;;;4996923;28;20041;-78
2021/12/28 02:01:10;;;;;;;112.05;43.08;;;-5.30;93.30;;;;;;4996135;28;20022;-78
2021/12/28 02:03:51;;;;;;;120.07;47.72;;;-5.20;93.30;;;;;;4996266;28;20026;-77
2021/12/28 02:06:18;;;;;;;;;;;-5.30;93.40;;;;;;4980326;28;20121;-78
2021/12/28 02:08:45;;;;;;;135.68;47.67;;;-5.20;93.40;;;;;;5008757;28;19914;-77
2021/12/28 02:11:15;;;;;;;116.53;44.45;;;-5.20;93.30;;;;;;4994312;28;20057;-78
2021/12/28 02:13:45;;;;;;;125.93;44.35;;;-5.20;93.20;;;;;;4994009;28;20472;-78
2021/12/28 02:16:13;;;;;;;131.48;49.08;;;-5.20;93.10;;;;;;4976075;28;20373;-77
2021/12/28 02:18:42;;;;;;;128.05;49.35;;;-5.20;93.10;;;;;;4994356;28;20060;-77
2021/12/28 02:21:22;;;;;;;113.63;44.95;;;-5.20;93.10;;;;;;4994242;28;20081;-77
2021/12/28 02:23:50;;;;;;;119.40;47.20;;;-5.30;93.10;;;;;;4994527;28;20030;-78
2021/12/28 02:26:20;;;;;;;123.22;44.80;;;-5.30;93.10;;;;;;4976958;28;20030;-78
2021/12/28 02:28:48;;;;;;;122.53;46.28;;;-5.30;93.20;;;;;;4994667;28;20026;-77
2021/12/28 02:31:15;;;;;;;126.10;46.97;;;-5.40;93.20;;;;;;4995850;28;20022;-77
2021/12/28 02:33:55;;;;;;;127.60;47.85;;;-5.40;93.20;;;;;;4998125;28;20101;-77
2021/12/28 02:36:22;;;;;;;127.03;46.45;;;-5.40;93.20;;;;;;4998137;28;20027;-77
2021/12/28 02:38:50;;;;;;;123.82;48.38;;;-5.40;93.30;;;;;;4980541;28;20038;-76
2021/12/28 02:41:20;;;;;;;125.70;48.22;;;-5.40;93.30;;;;;;4997410;28;20030;-77
2021/12/28 02:43:48;;;;;;;127.22;48.00;;;-5.40;93.40;;;;;;4980348;28;20052;-76
2021/12/28 02:46:16;;;;;;;137.75;49.42;;;-5.40;93.40;;;;;;4979902;28;20022;-76
2021/12/28 02:48:45;;;;;;;124.15;46.63;;;-5.40;93.40;;;;;;4980367;28;20027;-77
2021/12/28 02:51:15;;;;;;;144.57;49.33;;;-5.40;93.40;;;;;;4980451;28;20035;-77
2021/12/28 02:53:56;;;;;;;137.18;51.22;;;-5.40;93.70;;;;;;4979951;28;20037;-77
2021/12/28 02:56:24;;;;;;;132.63;47.97;;;-5.40;93.40;;;;;;4997660;28;20027;-77
2021/12/28 02:58:52;;;;;;;124.07;47.65;;;-5.40;93.50;;;;;;4997459;28;20116;-77
2021/12/28 03:01:28;;;;;;;129.20;48.45;;;-5.40;93.50;;;;;;4980170;28;20537;-77
2021/12/28 03:04:08;;;;;;;124.22;46.90;;;-5.40;93.50;;;;;;4980323;28;20034;-77
2021/12/28 03:06:43;;;;;;;120.53;47.88;;;-5.40;93.50;;;;;;4997493;28;20026;-77
2021/12/28 03:09:09;;;;;;;134.85;48.80;;;-5.40;93.50;;;;;;4987561;28;20069;-77
2021/12/28 03:11:36;;;;;;;115.10;48.53;;;-5.40;93.90;;;;;;5016829;28;20030;-77
2021/12/28 03:14:04;;;;;;;133.13;49.33;;;-5.40;93.60;;;;;;5016736;28;20461;-77
2021/12/28 03:16:31;;;;;;;141.95;49.85;;;-5.40;93.70;;;;;;4998938;28;20065;-76
2021/12/28 03:18:59;;;;;;;128.90;49.33;;;-5.40;93.70;;;;;;5016767;28;20022;-77
2021/12/28 03:21:25;;;;;;;133.85;50.63;;;-5.40;94.10;;;;;;5016897;28;20425;-77
2021/12/28 03:23:52;;;;;;;134.55;48.33;;;-5.40;93.80;;;;;;5016489;28;20026;-76
2021/12/28 03:26:22;;;;;;;128.93;47.88;;;-5.40;93.70;;;;;;4999083;28;20037;-78
2021/12/28 03:28:50;;;;;;;145.65;52.13;;;-5.40;93.70;;;;;;4998808;28;20030;-77
2021/12/28 03:31:36;;;;;;;134.63;48.42;;;-5.40;93.70;;;;;;4998859;28;20396;-78
2021/12/28 03:34:13;;;;;;;128.23;48.22;;;-5.40;93.80;;;;;;5015449;28;20030;-77
2021/12/28 03:36:41;;;;;;;139.27;50.20;;;-5.40;93.80;;;;;;5000028;28;20037;-77
2021/12/28 03:39:08;;;;;;;131.00;50.75;;;-5.40;93.80;;;;;;5025882;28;20030;-77
2021/12/28 03:41:36;;;;;;;130.93;51.90;;;-5.30;93.90;;;;;;5025994;28;20026;-77
2021/12/28 03:44:16;;;;;;;135.25;53.13;;;-5.30;93.90;;;;;;5024156;28;20030;-77
2021/12/28 03:46:44;;;;;;;130.70;51.95;;;-5.30;93.90;;;;;;5020182;28;20026;-77
2021/12/28 03:49:11;;;;;;;133.90;53.15;;;-5.30;94.00;;;;;;5017328;28;20026;-77
2021/12/28 03:51:37;;;;;;;145.00;55.03;;;-5.30;94.10;;;;;;5015938;28;20045;-78
2021/12/28 03:54:04;;;;;;;144.60;53.58;;;-5.30;94.10;;;;;;5015797;28;20028;-78
2021/12/28 03:56:32;;;;;;;153.40;53.25;;;-5.30;94.10;;;;;;5015950;28;20419;-78
2021/12/28 03:58:59;;;;;;;138.52;55.10;;;-5.30;94.20;;;;;;4998388;28;20021;-77
2021/12/28 04:01:29;;;;;;;143.05;56.47;;;-5.30;94.20;;;;;;5015798;28;20041;-78
2021/12/28 04:03:56;;;;;;;128.90;53.92;;;-5.30;94.20;;;;;;4981959;28;20025;-78
2021/12/28 04:06:23;;;;;;;150.07;56.40;;;-5.30;94.20;;;;;;5015633;28;20456;-78
2021/12/28 04:08:51;;;;;;;155.60;57.33;;;-5.30;94.30;;;;;;4997690;28;20069;-77
2021/12/28 04:11:25;;;;;;;149.73;55.55;;;-5.20;94.30;;;;;;4997943;28;20034;-78
2021/12/28 04:13:59;;;;;;;139.77;51.53;;;-5.20;94.30;;;;;;4997546;28;20030;-77
2021/12/28 04:16:24;;;;;;;149.73;55.72;;;-5.20;94.30;;;;;;4998806;28;20034;-77
2021/12/28 04:18:54;;;;;;;135.65;53.58;;;-5.20;94.30;;;;;;5014537;28;20045;-77
2021/12/28 04:21:22;;;;;;;142.32;52.85;;;-5.20;94.30;;;;;;4981609;28;20041;-77
2021/12/28 04:23:48;;;;;;;141.02;52.17;;;-5.20;94.40;;;;;;5015405;28;20474;-78
2021/12/28 04:26:16;;;;;;;131.68;51.38;;;-5.20;94.30;;;;;;4998314;28;20036;-77
2021/12/28 04:28:44;;;;;;;157.90;51.75;;;-5.20;94.20;;;;;;4997978;28;20029;-78
2021/12/28 04:31:14;;;;;;;133.00;51.70;;;-5.20;94.20;;;;;;5015123;28;20022;-78
2021/12/28 04:33:41;;;;;;;143.98;50.20;;;-5.20;94.30;;;;;;4997889;28;20479;-77
2021/12/28 04:36:14;;;;;;;141.88;52.47;;;-5.20;94.20;;;;;;5014949;28;20026;-78
2021/12/28 04:38:50;;;;;;;133.90;49.40;;;-5.10;94.30;;;;;;4981574;28;20033;-78
2021/12/28 04:41:17;;;;;;;127.10;48.15;;;-5.20;94.30;;;;;;4997761;28;20038;-78
2021/12/28 04:43:50;;;;;;;129.15;52.50;;;-5.20;94.20;;;;;;4996643;28;20049;-78
2021/12/28 04:46:18;;;;;;;134.48;52.28;;;-5.20;94.10;;;;;;5015143;28;20026;-77
2021/12/28 04:48:44;;;;;;;127.82;50.47;;;-5.20;94.20;;;;;;5015095;28;20026;-77
2021/12/28 04:51:11;;;;;;;135.38;52.97;;;-5.20;94.20;;;;;;4997231;28;20092;-77
2021/12/28 04:53:39;;;;;;;139.57;49.65;;;-5.20;94.30;;;;;;5014658;28;20416;-77
2021/12/28 04:56:06;;;;;;;131.48;50.08;;;-5.20;94.30;;;;;;5014753;28;20101;-77
2021/12/28 04:58:33;;;;;;;132.00;49.45;;;-5.20;94.30;;;;;;4981064;28;20505;-79
2021/12/28 05:01:00;;;;;;;147.85;50.30;;;-5.20;94.30;;;;;;4997225;28;20026;-78
2021/12/28 05:03:26;;;;;;;130.45;47.38;;;-5.20;94.30;;;;;;4996763;28;20053;-78
2021/12/28 05:05:55;;;;;;;131.77;50.75;;;-5.20;94.30;;;;;;5014485;28;20487;-78
2021/12/28 05:08:22;;;;;;;146.95;51.85;;;-5.20;94.50;;;;;;5013503;28;20430;-77
2021/12/28 05:10:51;;;;;;;125.80;49.65;;;-5.20;94.50;;;;;;4961243;28;20026;-78
2021/12/28 05:13:31;;;;;;;130.73;51.25;;;-5.20;94.50;;;;;;4977677;28;20476;-77
2021/12/28 05:15:59;;;;;;;131.65;51.00;;;-5.20;94.50;;;;;;4995635;28;20027;-78
2021/12/28 05:18:27;;;;;;;133.05;50.47;;;-5.20;94.60;;;;;;4977798;28;20091;-77
2021/12/28 05:20:54;;;;;;;136.35;52.55;;;-5.20;94.60;;;;;;4994835;28;20030;-78
2021/12/28 05:23:20;;;;;;;131.65;50.53;;;-5.20;94.60;;;;;;4994698;28;20026;-78
2021/12/28 05:25:47;;;;;;;138.73;52.58;;;-5.20;94.70;;;;;;4977232;28;20057;-77
2021/12/28 05:28:14;;;;;;;143.50;54.20;;;-5.20;94.70;;;;;;4994724;28;20019;-78
2021/12/28 05:30:41;;;;;;;141.00;52.78;;;-5.20;94.70;;;;;;4994786;28;20030;-77
2021/12/28 05:33:08;;;;;;;140.93;52.47;;;-5.20;95.00;;;;;;4977459;28;20026;-78
2021/12/28 05:35:36;;;;;;;140.55;52.30;;;-5.20;94.80;;;;;;4994277;28;20468;-78
2021/12/28 05:38:03;;;;;;;144.52;53.75;;;-5.20;94.80;;;;;;4976732;28;20022;-79
2021/12/28 05:40:30;;;;;;;140.50;55.25;;;-5.20;94.80;;;;;;4994487;28;20030;-77
2021/12/28 05:42:58;;;;;;;151.45;57.10;;;-5.20;94.90;;;;;;4994485;28;20471;-77
2021/12/28 05:45:24;;;;;;;148.30;56.90;;;-5.10;94.90;;;;;;4994409;28;20034;-78
2021/12/28 05:47:51;;;;;;;150.65;60.00;;;-5.10;95.10;;;;;;4993905;28;20463;-78
2021/12/28 05:50:18;;;;;;;150.18;58.72;;;-5.10;95.20;;;;;;4976826;28;20098;-78
2021/12/28 05:52:44;;;;;;;156.20;58.80;;;-5.10;95.30;;;;;;4993831;28;20026;-78
2021/12/28 05:55:18;;;;;;;163.80;61.47;;;-5.10;95.50;;;;;;4993729;28;20030;-77
2021/12/28 05:57:43;;;;;;;139.75;54.00;;;-5.00;95.70;;;;;;4994370;28;20383;-77
2021/12/28 06:00:13;;;;;;;143.15;59.42;;;-5.00;95.80;;;;;;4994022;28;20105;-79
2021/12/28 06:02:40;;;;;;;137.73;57.10;;;-4.90;95.80;;;;;;4993838;28;20018;-78
2021/12/28 06:05:10;;;;;;;141.02;57.78;;;-4.90;95.80;;;;;;4993688;28;20054;-79
2021/12/28 06:07:36;;;;;;;150.50;57.47;;;-4.90;95.80;;;;;;4993678;28;20019;-78
2021/12/28 06:10:04;;;;;;;152.48;60.58;;;-4.80;95.80;;;;;;4993846;28;20046;-76
2021/12/28 06:12:31;;;;;;;151.85;60.75;;;-4.80;95.90;;;;;;4960378;28;20549;-77
2021/12/28 06:14:59;;;;;;;156.18;58.97;;;-4.80;96.00;;;;;;4993622;28;20026;-78
2021/12/28 06:17:26;;;;;;;164.38;62.05;;;-4.70;96.10;;;;;;4993900;28;20065;-77
2021/12/28 06:19:53;;;;;;;150.18;57.83;;;-4.70;96.10;;;;;;4993058;28;20121;-78
2021/12/28 06:22:20;;;;;;;149.32;57.70;;;-4.70;96.10;;;;;;4993749;28;20023;-77
2021/12/28 06:24:48;;;;;;;156.20;58.03;;;-4.60;96.20;;;;;;4993798;28;20078;-77
2021/12/28 06:27:23;;;;;;;155.23;57.45;;;-4.60;96.20;;;;;;4993694;28;20034;-79
2021/12/28 06:29:50;;;;;;;142.68;59.00;;;-4.50;96.20;;;;;;4993572;28;20109;-78
2021/12/28 06:32:16;;;;;;;147.10;59.25;;;-4.50;96.20;;;;;;4993560;28;20054;-77
2021/12/28 06:34:42;;;;;;;146.98;56.42;;;-4.50;96.10;;;;;;4993551;28;20030;-78
2021/12/28 06:37:12;;;;;;;146.45;56.80;;;-4.40;96.10;;;;;;4976171;28;20026;-78
2021/12/28 06:39:38;;;;;;;155.48;58.55;;;-4.40;96.10;;;;;;4976167;28;20141;-78
2021/12/28 06:42:25;;;;;;;149.50;58.35;;;-4.40;96.00;;;;;;4993333;28;20022;-77
2021/12/28 06:44:53;;;;;;;145.65;58.50;;;-4.40;96.00;;;;;;4975854;28;20061;-77
2021/12/28 06:47:23;;;;;;;147.15;58.42;;;-4.30;96.00;;;;;;4992875;28;20097;-78
2021/12/28 06:49:50;;;;;;;139.82;57.05;;;-4.30;95.80;;;;;;4975847;28;20038;-79
2021/12/28 06:52:17;;;;;;;157.57;58.78;;;-4.30;95.80;;;;;;4984742;28;20014;-78
2021/12/28 06:54:44;;;;;;;158.50;62.03;;;-4.30;95.70;;;;;;5011382;28;20053;-77
2021/12/28 06:57:11;;;;;;;139.65;58.15;;;-4.20;95.70;;;;;;4994106;28;20018;-78
2021/12/28 06:59:43;;;;;;;145.23;58.65;;;-4.20;95.60;;;;;;5013156;28;20065;-77
2021/12/28 07:02:16;;;;;;;;;;;-4.20;95.60;;;;;;5013718;28;20022;-78
2021/12/28 07:04:48;;;;;;;141.50;55.40;;;-4.20;95.50;;;;;;4978924;28;19943;-78
2021/12/28 07:07:20;;;;;;;158.68;59.70;;;-4.20;95.60;;;;;;5011866;28;20037;-78
2021/12/28 07:09:47;;;;;;;;;;;-4.10;95.60;;;;;;5006922;28;20442;-77
2021/12/28 07:12:16;;;;;;;151.02;57.50;;;-4.10;95.50;;;;;;5031268;28;19951;-77
2021/12/28 07:14:42;;;;;;;135.02;55.97;;;-4.10;95.50;;;;;;5031138;28;20057;-78
2021/12/28 07:17:08;;;;;;;145.32;55.10;;;-4.10;95.50;;;;;;4997387;28;20025;-78
2021/12/28 07:19:34;;;;;;;151.73;59.35;;;-4.00;95.50;;;;;;5016742;28;20076;-77
2021/12/28 07:22:05;;;;;;;144.98;57.25;;;-4.00;95.50;;;;;;5017266;28;20076;-78
2021/12/28 07:24:30;;;;;;;137.80;58.77;;;-4.00;95.40;;;;;;5016973;28;20036;-77
2021/12/28 07:26:57;;;;;;;151.52;58.78;;;-3.90;95.30;;;;;;5034830;28;20033;-78
2021/12/28 07:29:25;;;;;;;148.85;58.17;;;-3.80;95.30;;;;;;5019019;28;20096;-77
2021/12/28 07:31:52;;;;;;;152.60;61.55;;;-3.80;95.20;;;;;;5026403;28;20032;-78
2021/12/28 07:34:18;;;;;;;144.88;60.80;;;-3.70;95.10;;;;;;5043943;28;20029;-78
2021/12/28 07:36:45;;;;;;;140.10;59.25;;;-3.70;95.40;;;;;;5038003;28;20057;-77
2021/12/28 07:39:12;;;;;;;147.25;56.65;;;-3.60;94.90;;;;;;5019021;28;20036;-78
2021/12/28 07:41:40;;;;;;;134.32;56.63;;;-3.60;94.90;;;;;;5035999;28;20059;-78
2021/12/28 07:44:08;;;;;;;143.10;56.35;;;-3.60;94.80;;;;;;5036025;28;20033;-78
2021/12/28 07:46:36;;;;;;;151.38;57.50;;;-3.60;94.80;;;;;;5035684;28;20026;-78
2021/12/28 07:49:03;;;;;;;142.00;56.35;;;-3.50;94.70;;;;;;5035863;28;20475;-77
2021/12/28 07:51:31;;;;;;;140.05;56.40;;;-3.40;94.60;;;;;;5032702;28;20037;-77
2021/12/28 07:53:59;;;;;;;147.45;58.20;;;-3.40;94.40;;;;;;5017999;28;20024;-77
2021/12/28 07:56:27;;;;;;;146.88;59.63;;;-3.30;94.30;;;;;;5035800;28;20032;-78
2021/12/28 07:58:55;;;;;;;140.52;56.95;;;-3.20;94.20;;;;;;5018211;28;20025;-78
2021/12/28 08:01:22;;;;;;;134.45;57.67;;;-3.20;94.20;;;;;;5035506;28;20030;-77
2021/12/28 08:03:50;;;;;;;146.23;56.53;;;-3.20;94.20;;;;;;5017621;28;20116;-77
2021/12/28 08:06:18;;;;;;;144.43;58.38;;;-3.10;94.20;;;;;;5017678;28;20033;-78
2021/12/28 08:08:45;;;;;;;139.18;57.75;;;-3.00;94.00;;;;;;5013373;28;20037;-77
2021/12/28 08:11:12;;;;;;;137.10;54.75;;;-2.90;93.70;;;;;;5015834;28;20026;-76
2021/12/28 08:13:40;;;;;;;144.77;61.22;;;-2.80;93.50;;;;;;5015471;28;20030;-77
2021/12/28 08:16:08;;;;;;;133.90;55.35;;;-2.80;93.40;;;;;;5015767;28;20113;-77
2021/12/28 08:18:34;;;;;;;149.85;57.50;;;-2.70;93.20;;;;;;4997830;28;20084;-77
2021/12/28 08:21:02;;;;;;;130.32;53.50;;;-2.70;93.20;;;;;;4998182;28;20022;-78
2021/12/28 08:23:30;;;;;;;138.73;55.95;;;-2.70;93.00;;;;;;5015843;28;20463;-78
2021/12/28 08:25:57;;;;;;;132.45;51.90;;;-2.60;92.90;;;;;;4998175;28;20030;-76
2021/12/28 08:28:23;;;;;;;128.98;54.22;;;-2.60;92.80;;;;;;5015602;28;20444;-78
2021/12/28 08:30:49;;;;;;;129.02;52.38;;;-2.50;92.80;;;;;;4997552;28;20061;-77
2021/12/28 08:33:17;;;;;;;132.90;52.80;;;-2.50;92.80;;;;;;5014830;28;20045;-78
2021/12/28 08:35:44;;;;;;;137.60;56.17;;;-2.50;92.80;;;;;;4997250;28;20017;-77
2021/12/28 08:38:12;;;;;;;127.72;52.95;;;-2.40;92.70;;;;;;5012142;28;20471;-78
2021/12/28 08:40:54;;;;;;;141.50;54.30;;;-2.40;92.60;;;;;;5015039;28;20030;-78
2021/12/28 08:43:19;;;;;;;135.10;52.72;;;-2.40;92.50;;;;;;5014804;28;20073;-77
2021/12/28 08:45:46;;;;;;;138.40;54.58;;;-2.40;92.60;;;;;;4996949;28;20046;-77
2021/12/28 08:48:12;;;;;;;144.60;54.33;;;-2.30;92.50;;;;;;5014849;28;20537;-77
2021/12/28 08:50:53;;;;;;;135.50;52.95;;;-2.30;92.40;;;;;;4998650;28;20122;-77
2021/12/28 08:53:19;;;;;;;146.75;55.05;;;-2.30;92.30;;;;;;4998160;28;20018;-77
2021/12/28 08:55:47;;;;;;;136.95;52.45;;;-2.20;92.40;;;;;;5015004;28;20022;-78
2021/12/28 08:58:15;;;;;;;144.05;54.30;;;-2.20;92.30;;;;;;5011525;28;20135;-77
2021/12/28 09:00:41;;;;;;;144.25;55.50;;;-2.20;92.30;;;;;;5013163;28;20033;-77
2021/12/28 09:03:07;;;;;;;135.25;53.65;;;-2.20;92.30;;;;;;4997202;28;20030;-77
2021/12/28 09:05:34;;;;;;;131.63;55.20;;;-2.20;92.30;;;;;;5014869;28;20032;-76
2021/12/28 09:08:04;;;;;;;144.93;53.45;;;-2.10;92.20;;;;;;4996980;28;20030;-76
2021/12/28 09:10:30;;;;;;;122.05;50.38;;;-2.10;92.30;;;;;;4994151;28;20076;-78
2021/12/28 09:12:56;;;;;;;127.45;52.10;;;-2.10;92.30;;;;;;4996462;28;20488;-77
2021/12/28 09:15:23;;;;;;;116.90;49.63;;;-2.10;92.30;;;;;;4996650;28;20030;-77
2021/12/28 09:17:57;;;;;;;135.63;53.67;;;-2.10;92.30;;;;;;5013984;28;20144;-77
2021/12/28 09:20:26;;;;;;;130.55;52.95;;;-2.10;92.40;;;;;;4996269;28;20480;-78
2021/12/28 09:22:57;;;;;;;127.38;51.67;;;-2.00;92.40;;;;;;4995785;28;20049;-76
2021/12/28 09:25:24;;;;;;;116.93;49.08;;;-2.00;92.40;;;;;;4996213;28;20129;-77
2021/12/28 09:27:58;;;;;;;122.85;51.63;;;-1.90;92.40;;;;;;4998375;28;20117;-79
2021/12/28 09:30:24;;;;;;;114.03;49.80;;;-1.90;92.30;;;;;;5010042;28;20089;-78
2021/12/28 09:32:52;;;;;;;132.60;51.72;;;-1.80;92.40;;;;;;4975951;28;20026;-75
2021/12/28 09:35:19;;;;;;;123.68;51.97;;;-1.70;92.30;;;;;;4976394;28;20029;-75
2021/12/28 09:37:46;;;;;;;130.13;51.80;;;-1.70;92.20;;;;;;4993884;28;20088;-75
2021/12/28 09:40:12;;;;;;;133.10;51.95;;;-1.50;92.00;;;;;;4993567;28;20031;-75
2021/12/28 09:42:41;;;;;;;129.32;52.67;;;-1.50;91.70;;;;;;4993457;28;20094;-76
2021/12/28 09:45:10;;;;;;;123.40;53.67;;;-1.40;91.60;;;;;;4976469;28;20196;-73
2021/12/28 09:47:36;;;;;;;125.03;52.05;;;-1.30;91.50;;;;;;4976581;28;20018;-76
2021/12/28 09:50:04;;;;;;;122.85;50.22;;;-1.20;91.40;;;;;;4976290;28;20026;-73
2021/12/28 09:52:30;;;;;;;128.00;52.60;;;-1.10;91.10;;;;;;4976043;28;20029;-74
2021/12/28 09:54:56;;;;;;;120.13;51.50;;;-1.00;90.90;;;;;;4975393;28;20098;-74
2021/12/28 09:57:23;;;;;;;124.10;49.97;;;-1.00;90.80;;;;;;4975150;28;20030;-76
2021/12/28 09:59:50;;;;;;;125.15;53.28;;;-0.90;90.70;;;;;;4992990;28;20102;-78
2021/12/28 10:02:17;;;;;;;119.25;49.08;;;-0.80;90.60;;;;;;4975134;28;20042;-75
2021/12/28 10:04:53;;;;;;;124.55;50.38;;;-0.70;90.90;;;;;;4974786;28;20026;-73
2021/12/28 10:07:23;;;;;;;110.28;49.28;;;-0.60;90.50;;;;;;4976074;28;20029;-76
2021/12/28 10:09:49;;;;;;;114.10;48.95;;;-0.50;90.40;;;;;;5005507;28;20077;-77
2021/12/28 10:12:31;;;;;;;119.60;46.33;;;-0.40;90.30;;;;;;5011410;28;20026;-76
2021/12/28 10:15:00;;;;;;;111.75;49.58;;;-0.30;90.00;;;;;;5012927;28;20033;-77
2021/12/28 10:17:29;;;;;;;118.50;49.03;;;-0.20;90.00;;;;;;5013196;28;20022;-76
2021/12/28 10:19:55;;;;;;;127.20;49.72;;;-0.10;89.50;;;;;;5013512;28;20036;-78
2021/12/28 10:22:36;;;;;;;125.75;49.20;;;0.00;89.30;;;;;;4995126;28;20030;-76
2021/12/28 10:25:14;;;;;;;112.10;48.28;;;0.10;89.00;;;;;;5012550;28;20430;-76
2021/12/28 10:27:43;;;;;;;114.18;49.83;;;0.30;89.00;;;;;;5011250;28;20101;-76
2021/12/28 10:30:40;;;;;;;121.43;50.20;;;0.30;88.20;;;;;;5011588;28;20059;-77
2021/12/28 10:33:10;;;;;;;118.45;51.92;;;0.40;88.00;;;;;;5011416;28;20021;-78
2021/12/28 10:35:57;;;;;;;119.35;50.63;;;0.50;88.10;;;;;;5011847;28;20145;-77
2021/12/28 10:38:26;;;;;;;115.15;50.72;;;0.60;88.30;;;;;;5013892;28;20063;-76
2021/12/28 10:40:55;;;;;;;125.85;51.88;;;0.70;87.10;;;;;;5013126;28;20105;-74
2021/12/28 10:43:34;;;;;;;126.53;50.58;;;0.80;86.80;;;;;;5008201;28;20060;-76
2021/12/28 10:46:03;;;;;;;130.88;52.08;;;0.90;86.40;;;;;;4998225;28;20378;-76
2021/12/28 10:48:33;;;;;;;107.35;48.47;;;0.90;85.90;;;;;;5032577;28;20032;-76
2021/12/28 10:51:13;;;;;;;118.57;50.55;;;0.90;85.90;;;;;;5014774;28;20021;-74
2021/12/28 10:56:34;;;;;;;106.28;48.22;;;1.00;86.00;;;;;;5022545;28;20418;-78
2021/12/28 10:59:02;;;;;;;122.45;50.78;;;1.00;86.10;;;;;;4998936;28;20026;-77
2021/12/28 11:01:32;;;;;;;110.72;47.58;;;1.00;86.10;;;;;;5014518;28;20052;-78
2021/12/28 11:04:05;;;;;;;118.57;52.28;;;1.10;85.90;;;;;;5015990;28;20029;-78
2021/12/28 11:06:34;;;;;;;119.22;50.20;;;1.10;86.10;;;;;;5015293;28;20116;-77
2021/12/28 11:09:14;;;;;;;111.97;50.40;;;1.10;85.70;;;;;;4998350;28;20141;-78
2021/12/28 11:11:41;;;;;;;131.88;52.20;;;1.10;85.50;;;;;;4981892;28;20034;-76
2021/12/28 11:14:15;;;;;;;121.78;50.35;;;1.10;85.80;;;;;;4999325;28;20076;-76
2021/12/28 11:16:47;;;;;;;116.78;50.92;;;1.20;85.60;;;;;;5016590;28;20028;-77
2021/12/28 11:19:21;;;;;;;109.85;49.00;;;1.20;86.00;;;;;;4998616;28;20445;-77
2021/12/28 11:21:57;;;;;;;113.50;50.05;;;1.20;85.70;;;;;;5015392;28;20060;-76
2021/12/28 11:24:29;;;;;;;120.78;52.17;;;1.30;85.70;;;;;;5015049;28;20418;-77
2021/12/28 11:26:55;;;;;;;111.05;49.65;;;1.30;85.70;;;;;;4997051;28;20034;-77
2021/12/28 11:29:36;;;;;;;109.68;50.78;;;1.30;85.20;;;;;;4998352;28;20022;-77
2021/12/28 11:32:05;;;;;;;117.20;50.47;;;1.40;85.30;;;;;;5015983;28;20125;-78
2021/12/28 11:34:33;;;;;;;111.97;49.80;;;1.40;85.30;;;;;;4997928;28;20137;-75
2021/12/28 11:37:01;;;;;;;117.10;51.50;;;1.40;85.40;;;;;;5015212;28;20057;-76
2021/12/28 11:39:39;;;;;;;122.72;51.50;;;1.50;85.50;;;;;;4998044;28;20026;-76
2021/12/28 11:42:06;;;;;;;113.68;49.05;;;1.50;85.30;;;;;;4998208;28;20046;-76
2021/12/28 11:44:35;;;;;;;112.20;50.38;;;1.60;84.90;;;;;;4997871;28;20518;-77
2021/12/28 11:47:03;;;;;;;125.75;52.47;;;1.60;85.00;;;;;;4997848;28;20022;-78
2021/12/28 11:49:30;;;;;;;115.82;49.45;;;1.60;84.80;;;;;;5015773;28;20022;-77
2021/12/28 11:51:58;;;;;;;111.65;51.45;;;1.70;84.70;;;;;;5015955;28;20468;-76
2021/12/28 11:54:27;;;;;;;120.20;50.08;;;1.70;84.60;;;;;;5015595;28;20079;-75
2021/12/28 11:57:00;;;;;;;112.18;49.20;;;1.80;84.20;;;;;;5015624;28;20018;-78
2021/12/28 11:59:32;;;;;;;111.10;49.53;;;1.80;84.20;;;;;;5015614;28;20034;-78
2021/12/28 12:02:11;;;;;;;113.10;48.72;;;1.90;84.10;;;;;;5015441;28;20045;-78
2021/12/28 12:04:53;;;;;;;127.05;51.08;;;1.90;85.00;;;;;;4997664;28;20117;-81
2021/12/28 12:07:26;;;;;;;117.55;50.10;;;1.90;84.40;;;;;;5015442;28;20032;-80
2021/12/28 12:09:55;;;;;;;114.60;51.42;;;1.90;84.00;;;;;;4997390;28;20046;-80
2021/12/28 12:12:25;;;;;;;121.07;50.97;;;1.90;83.90;;;;;;5015242;28;20018;-79
2021/12/28 12:14:52;;;;;;;111.13;50.45;;;1.90;84.10;;;;;;5015808;28;20018;-81
2021/12/28 12:17:40;;;;;;;122.65;53.22;;;2.00;84.20;;;;;;5015568;28;20065;-79
2021/12/28 12:20:21;;;;;;;121.90;55.28;;;2.00;83.90;;;;;;5015142;28;20033;-79
2021/12/28 12:22:52;;;;;;;124.28;53.97;;;2.00;83.60;;;;;;5015286;28;20076;-74
2021/12/28 12:25:21;;;;;;;127.43;52.42;;;2.00;83.60;;;;;;5014872;28;20029;-76
2021/12/28 12:27:50;;;;;;;129.05;52.75;;;2.00;83.70;;;;;;5014948;28;20083;-75
2021/12/28 12:30:28;;;;;;;119.35;52.20;;;2.00;84.10;;;;;;4997432;28;20054;-76
2021/12/28 12:33:07;;;;;;;124.72;54.38;;;2.00;84.10;;;;;;4997174;28;20033;-74
2021/12/28 12:35:54;;;;;;;119.28;50.60;;;2.00;84.50;;;;;;4996944;28;20032;-74